Nearby METAR Reports


KEDC - Austin Exec, Texas, USA
Distance from station: SW 16mi, 25km
Updated: Mon, 12-Nov-2018 12:15pm CST
Overcast
Overcast
 Wind from N
Wind: N 22 mph , 35 km/h, Gust: 28 mph , 44 km/h
Temperature: 48°F , 9°C
Wind Chill: 41°F , 5°C
Dew Point: 45°F , 7°C
Humidity: 87%
Barometer: 30.17 inHg , 1021.7 hPa
Clouds: Overcast
Visibility: 10 miles , 16 km
Cloud details: Mostly Cloudy 1500 ft
Overcast 2300 ft
2018/11/12 18:15 KEDC 121815Z AUTO 01019G24KT 10SM BKN015 OVC023 09/07 A3017 RMK AO2
KGTU - Georgetown, Texas, USA
Distance from station: WNW 17mi, 28km
Updated: Mon, 12-Nov-2018 11:56am CST
Overcast
Overcast
 Wind from N
Wind: N 17 mph , 28 km/h, Gust: 25 mph , 41 km/h
Temperature: 46°F , 8°C
Wind Chill: 39°F , 4°C
Dew Point: 45°F , 7°C
Humidity: 93%
Barometer: 30.20 inHg , 1022.7 hPa
Clouds: Overcast
Visibility: 10 miles , 16 km
Cloud details: Overcast 1200 ft
2018/11/12 17:56 KGTU 121756Z 35015G22KT 10SM OVC012 08/07 A3020 RMK AO2 SLP229 60006 T00830067 10094 20083 53010
 
KATT - Austin/Mabry, Texas, USA
Distance from station: SW 28mi, 45km
Updated: Mon, 12-Nov-2018 12:14pm CST
Overcast
Overcast
 Wind from N
Wind: N 13 mph , 20 km/h, Gust: 22 mph , 35 km/h
Temperature: 48°F , 9°C
Wind Chill: 43°F , 6°C
Dew Point: 45°F , 7°C
Humidity: 87%
Barometer: 30.17 inHg , 1021.7 hPa
Clouds: Overcast
Visibility: 10 miles , 16 km
Cloud details: Mostly Cloudy 1300 ft
Overcast 2000 ft
2018/11/12 18:14 KATT 121814Z AUTO 35011G19KT 10SM BKN013 OVC020 09/07 A3017 RMK AO2 T00940067
KAUS - Austin, Texas, USA
Distance from station: SSW 32mi, 51km
Updated: Mon, 12-Nov-2018 11:53am CST
Light rain, Overcast
Light rain, Overcast
 Wind from N
Wind: N 18 mph , 30 km/h, Gust: 33 mph , 54 km/h
Temperature: 50°F , 10°C
Wind Chill: 44°F , 7°C
Dew Point: 45°F , 7°C
Humidity: 82%
Barometer: 30.15 inHg , 1021 hPa
Summary: Light Rain
Clouds: Overcast
Visibility: 10 miles , 16 km
Cloud details: Mostly Cloudy 1700 ft
Overcast 4100 ft
2018/11/12 17:53 KAUS 121753Z 35016G29KT 10SM -RA BKN017 OVC041 10/07 A3015 RMK AO2 PK WND 36030/1743 RAE18B40 SLP212 P0001 60004 T01000072 10106 20094 50014
 
KRYW - Lago Vista, Texas, USA
Distance from station: W 33mi, 54km
Updated: Mon, 12-Nov-2018 12:15pm CST
Overcast
Overcast
 Wind from N
Wind: N 14 mph , 22 km/h, Gust: 26 mph , 43 km/h
Temperature: 46°F , 8°C
Wind Chill: 40°F , 4°C
Dew Point: 46°F , 8°C
Humidity: 100%
Barometer: 30.17 inHg , 1021.7 hPa
Clouds: Overcast
Visibility: 10 miles , 16 km
Cloud details: Overcast 800 ft
2018/11/12 18:15 KRYW 121815Z AUTO 35012G23KT 340V040 10SM OVC008 08/08 A3017 RMK AO2 T00800080
KILE - Killeen Muni, Texas, USA
Distance from station: NNW 37mi, 59km
Updated: Mon, 12-Nov-2018 12:08pm CST
Overcast
Overcast
 Wind from N
Wind: N 16 mph , 26 km/h, Gust: 29 mph , 46 km/h
Temperature: 45°F , 7°C
Wind Chill: 38°F , 3°C
Dew Point: 41°F , 5°C
Humidity: 87%
Barometer: 30.20 inHg , 1022.7 hPa
Clouds: Overcast
Visibility: 10 miles , 16 km
Cloud details: Mostly Cloudy 1200 ft
Overcast 1800 ft
2018/11/12 18:08 KILE 121808Z AUTO 35014G25KT 10SM BKN012 OVC018 07/05 A3020 RMK AO2
 
KTPL - Temple/Miller, Texas, USA
Distance from station: N 38mi, 61km
Updated: Mon, 12-Nov-2018 11:51am CST
Overcast
Overcast
 Wind from NNW
Wind: NNW 20 mph , 31 km/h, Gust: 24 mph , 39 km/h
Temperature: 46°F , 8°C
Wind Chill: 38°F , 3°C
Dew Point: 43°F , 6°C
Humidity: 87%
Barometer: 30.19 inHg , 1022.4 hPa
Clouds: Overcast
Visibility: 10 miles , 16 km
Cloud details: Overcast 1200 ft
2018/11/12 17:51 KTPL 121751Z AUTO 34017G21KT 10SM OVC012 08/06 A3019 RMK AO2 RAE09 SLP241 P0000 60003 T00780061 10083 20072 51028
KGYB - Giddings-Lee, Texas, USA
Distance from station: SE 39mi, 62km
Updated: Mon, 12-Nov-2018 12:15pm CST
Light rain, Overcast
Light rain, Overcast
 Wind from N
Wind: N 10 mph , 17 km/h, Gust: 24 mph , 39 km/h
Temperature: 46°F , 8°C
Wind Chill: 41°F , 5°C
Dew Point: 43°F , 6°C
Humidity: 87%
Barometer: 30.13 inHg , 1020.3 hPa
Summary: Light Rain
Clouds: Overcast
Visibility: 10 miles , 16 km
Cloud details: Overcast 1200 ft
2018/11/12 18:15 KGYB 121815Z AUTO 35009G21KT 10SM -RA OVC012 08/06 A3013 RMK AO2 T00760060
 
KGRK - Gray/Ft Hood, Texas, USA
Distance from station: NW 42mi, 67km
Updated: Mon, 12-Nov-2018 11:58am CST
Overcast
Overcast
 Wind from N
Wind: N 23 mph , 37 km/h, Gust: 29 mph , 46 km/h
Temperature: 45°F , 7°C
Wind Chill: 36°F , 2°C
Dew Point: 41°F , 5°C
Humidity: 87%
Barometer: 30.19 inHg , 1022.4 hPa
Clouds: Overcast
Visibility: 10 miles , 16 km
Cloud details: Overcast 1200 ft
2018/11/12 17:58 KGRK 121758Z AUTO 36020G25KT 10SM OVC012 07/05 A3019 RMK AO2 PK WND 33027/52 LTG DSNT E SLP226 60001 T00680050 10082 20068 50028
KHLR - Ft Hood/Killeen, Texas, USA
Distance from station: NNW 42mi, 67km
Updated: Mon, 12-Nov-2018 11:58am CST
Overcast
Overcast
 Wind from N
Wind: N 24 mph , 39 km/h, Gust: 30 mph , 48 km/h
Temperature: 45°F , 7°C
Wind Chill: 36°F , 2°C
Dew Point: 41°F , 5°C
Humidity: 87%
Barometer: 30.17 inHg , 1021.7 hPa
Clouds: Overcast
Visibility: 10 miles , 16 km
Cloud details: Overcast 1100 ft
2018/11/12 17:58 KHLR 121758Z AUTO 36021G26KT 10SM OVC011 07/05 A3017 RMK AO2 PK WND 31026/49 LTG DSNT E SLP217 60002 T00710051 10083 20071 50028
 
KRWV - Caldwell, Texas, USA
Distance from station: E 43mi, 69km
Updated: Mon, 12-Nov-2018 12:15pm CST
Light rain, Overcast
Light rain, Overcast
 Wind from N
Wind: N 22 mph , 35 km/h, Gust: 30 mph , 48 km/h
Temperature: 46°F , 8°C
Wind Chill: 38°F , 3°C
Dew Point: 45°F , 7°C
Humidity: 93%
Barometer: 30.12 inHg , 1020 hPa
Summary: Light Rain
Clouds: Overcast
Visibility: 10 miles , 16 km
Cloud details: Overcast 1000 ft
2018/11/12 18:15 KRWV 121815Z AUTO 35019G26KT 10SM -RA OVC010 08/07 A3012 RMK AO2 T00850071
KBMQ - Burnet, Texas, USA
Distance from station: WNW 50mi, 80km
Updated: Mon, 12-Nov-2018 11:53am CST
Overcast
Overcast
 Wind from NNW
Wind: NNW 16 mph , 26 km/h, Gust: 26 mph , 43 km/h
Temperature: 46°F , 8°C
Wind Chill: 39°F , 4°C
Dew Point: 41°F , 5°C
Humidity: 82%
Barometer: 30.21 inHg , 1023 hPa
Clouds: Overcast
Visibility: 10 miles , 16 km
Cloud details: Overcast 1200 ft
2018/11/12 17:53 KBMQ 121753Z AUTO 34014G23KT 10SM OVC012 08/05 A3021 RMK AO2 PK WND 35027/1720 SLP229 60001 T00830050 10089 20078 53007